sensor_id;sensor_type;location;lat;lon;timestamp;P1;durP1;ratioP1;P2;durP2;ratioP2
21034;SDS011;10676;50.848;3.272;2023-04-24T00:00:05;9.13;;;7.80;;
21034;SDS011;10676;50.848;3.272;2023-04-24T00:02:31;8.02;;;7.32;;
21034;SDS011;10676;50.848;3.272;2023-04-24T00:04:57;8.30;;;7.50;;
21034;SDS011;10676;50.848;3.272;2023-04-24T00:07:28;9.00;;;8.10;;
21034;SDS011;10676;50.848;3.272;2023-04-24T00:09:54;9.93;;;7.40;;
21034;SDS011;10676;50.848;3.272;2023-04-24T00:12:20;8.43;;;7.72;;
21034;SDS011;10676;50.848;3.272;2023-04-24T00:14:45;8.90;;;8.10;;
21034;SDS011;10676;50.848;3.272;2023-04-24T00:17:11;8.48;;;7.28;;
21034;SDS011;10676;50.848;3.272;2023-04-24T00:19:37;9.13;;;8.23;;
21034;SDS011;10676;50.848;3.272;2023-04-24T00:22:02;8.95;;;8.15;;
21034;SDS011;10676;50.848;3.272;2023-04-24T00:24:28;9.65;;;8.75;;
21034;SDS011;10676;50.848;3.272;2023-04-24T00:26:54;9.00;;;8.10;;
21034;SDS011;10676;50.848;3.272;2023-04-24T00:29:19;9.73;;;8.82;;
21034;SDS011;10676;50.848;3.272;2023-04-24T00:31:45;9.80;;;8.82;;
21034;SDS011;10676;50.848;3.272;2023-04-24T00:34:11;9.80;;;8.90;;
21034;SDS011;10676;50.848;3.272;2023-04-24T00:36:37;9.57;;;8.32;;
21034;SDS011;10676;50.848;3.272;2023-04-24T00:39:03;12.18;;;9.15;;
21034;SDS011;10676;50.848;3.272;2023-04-24T00:41:28;9.88;;;8.95;;
21034;SDS011;10676;50.848;3.272;2023-04-24T00:43:55;10.15;;;9.02;;
21034;SDS011;10676;50.848;3.272;2023-04-24T00:46:21;10.63;;;9.02;;
21034;SDS011;10676;50.848;3.272;2023-04-24T00:48:47;12.07;;;10.32;;
21034;SDS011;10676;50.848;3.272;2023-04-24T00:51:13;13.73;;;11.05;;
21034;SDS011;10676;50.848;3.272;2023-04-24T00:53:38;12.90;;;10.57;;
21034;SDS011;10676;50.848;3.272;2023-04-24T00:56:04;15.48;;;11.25;;
21034;SDS011;10676;50.848;3.272;2023-04-24T00:58:30;16.80;;;11.85;;
21034;SDS011;10676;50.848;3.272;2023-04-24T01:00:56;16.85;;;12.45;;
21034;SDS011;10676;50.848;3.272;2023-04-24T01:03:26;17.88;;;11.80;;
21034;SDS011;10676;50.848;3.272;2023-04-24T01:05:55;17.35;;;12.85;;
21034;SDS011;10676;50.848;3.272;2023-04-24T01:08:22;16.70;;;13.48;;
21034;SDS011;10676;50.848;3.272;2023-04-24T01:10:49;19.58;;;14.45;;
21034;SDS011;10676;50.848;3.272;2023-04-24T01:13:16;17.23;;;13.60;;
21034;SDS011;10676;50.848;3.272;2023-04-24T01:15:44;20.53;;;14.87;;
21034;SDS011;10676;50.848;3.272;2023-04-24T01:18:10;22.88;;;14.73;;
21034;SDS011;10676;50.848;3.272;2023-04-24T01:20:36;20.38;;;15.40;;
21034;SDS011;10676;50.848;3.272;2023-04-24T01:23:05;25.48;;;19.73;;
21034;SDS011;10676;50.848;3.272;2023-04-24T01:25:32;21.55;;;16.33;;
21034;SDS011;10676;50.848;3.272;2023-04-24T01:27:58;21.15;;;15.75;;
21034;SDS011;10676;50.848;3.272;2023-04-24T01:30:24;23.08;;;16.42;;
21034;SDS011;10676;50.848;3.272;2023-04-24T01:32:50;20.88;;;16.30;;
21034;SDS011;10676;50.848;3.272;2023-04-24T01:35:16;20.60;;;15.47;;
21034;SDS011;10676;50.848;3.272;2023-04-24T01:37:42;24.63;;;17.70;;
21034;SDS011;10676;50.848;3.272;2023-04-24T01:40:09;21.00;;;16.15;;
21034;SDS011;10676;50.848;3.272;2023-04-24T01:42:35;19.80;;;15.38;;
21034;SDS011;10676;50.848;3.272;2023-04-24T01:45:01;23.08;;;14.70;;
21034;SDS011;10676;50.848;3.272;2023-04-24T01:47:28;24.77;;;15.73;;
21034;SDS011;10676;50.848;3.272;2023-04-24T01:49:55;20.10;;;15.80;;
21034;SDS011;10676;50.848;3.272;2023-04-24T01:52:21;22.33;;;14.82;;
21034;SDS011;10676;50.848;3.272;2023-04-24T01:54:46;19.98;;;15.27;;
21034;SDS011;10676;50.848;3.272;2023-04-24T01:57:13;21.60;;;15.40;;
21034;SDS011;10676;50.848;3.272;2023-04-24T01:59:39;20.83;;;15.23;;
21034;SDS011;10676;50.848;3.272;2023-04-24T02:02:05;23.03;;;15.70;;
21034;SDS011;10676;50.848;3.272;2023-04-24T02:04:31;21.98;;;15.35;;
21034;SDS011;10676;50.848;3.272;2023-04-24T02:06:57;23.87;;;15.83;;
21034;SDS011;10676;50.848;3.272;2023-04-24T02:09:22;22.17;;;15.98;;
21034;SDS011;10676;50.848;3.272;2023-04-24T02:11:48;21.93;;;16.83;;
21034;SDS011;10676;50.848;3.272;2023-04-24T02:14:13;28.27;;;16.67;;
21034;SDS011;10676;50.848;3.272;2023-04-24T02:16:39;23.92;;;17.65;;
21034;SDS011;10676;50.848;3.272;2023-04-24T02:19:05;27.80;;;17.95;;
21034;SDS011;10676;50.848;3.272;2023-04-24T02:21:30;27.33;;;19.30;;
21034;SDS011;10676;50.848;3.272;2023-04-24T02:23:56;26.45;;;18.83;;
21034;SDS011;10676;50.848;3.272;2023-04-24T02:26:22;28.05;;;18.60;;
21034;SDS011;10676;50.848;3.272;2023-04-24T02:28:48;24.73;;;14.45;;
21034;SDS011;10676;50.848;3.272;2023-04-24T02:31:14;17.83;;;13.38;;
21034;SDS011;10676;50.848;3.272;2023-04-24T02:33:39;20.00;;;13.85;;
21034;SDS011;10676;50.848;3.272;2023-04-24T02:36:05;17.67;;;13.20;;
21034;SDS011;10676;50.848;3.272;2023-04-24T02:38:31;19.27;;;13.25;;
21034;SDS011;10676;50.848;3.272;2023-04-24T02:40:56;19.15;;;12.23;;
21034;SDS011;10676;50.848;3.272;2023-04-24T02:43:22;19.60;;;12.52;;
21034;SDS011;10676;50.848;3.272;2023-04-24T02:45:48;16.98;;;12.73;;
21034;SDS011;10676;50.848;3.272;2023-04-24T02:48:14;21.15;;;13.10;;
21034;SDS011;10676;50.848;3.272;2023-04-24T02:50:40;22.10;;;14.80;;
21034;SDS011;10676;50.848;3.272;2023-04-24T02:53:05;20.02;;;14.57;;
21034;SDS011;10676;50.848;3.272;2023-04-24T02:55:31;20.98;;;14.60;;
21034;SDS011;10676;50.848;3.272;2023-04-24T02:57:57;22.63;;;14.70;;
21034;SDS011;10676;50.848;3.272;2023-04-24T03:00:22;18.55;;;12.50;;
21034;SDS011;10676;50.848;3.272;2023-04-24T03:02:51;26.73;;;16.77;;
21034;SDS011;10676;50.848;3.272;2023-04-24T03:05:16;26.85;;;17.50;;
21034;SDS011;10676;50.848;3.272;2023-04-24T03:07:42;34.97;;;18.73;;
21034;SDS011;10676;50.848;3.272;2023-04-24T03:10:08;32.95;;;20.83;;
21034;SDS011;10676;50.848;3.272;2023-04-24T03:12:34;31.85;;;21.08;;
21034;SDS011;10676;50.848;3.272;2023-04-24T03:14:59;33.50;;;21.40;;
21034;SDS011;10676;50.848;3.272;2023-04-24T03:17:25;36.30;;;25.02;;
21034;SDS011;10676;50.848;3.272;2023-04-24T03:19:50;41.20;;;24.08;;
21034;SDS011;10676;50.848;3.272;2023-04-24T03:22:16;34.60;;;23.10;;
21034;SDS011;10676;50.848;3.272;2023-04-24T03:24:42;40.20;;;21.90;;
21034;SDS011;10676;50.848;3.272;2023-04-24T03:27:07;35.90;;;23.52;;
21034;SDS011;10676;50.848;3.272;2023-04-24T03:29:33;34.88;;;20.42;;
21034;SDS011;10676;50.848;3.272;2023-04-24T03:31:59;39.22;;;22.80;;
21034;SDS011;10676;50.848;3.272;2023-04-24T03:34:24;34.75;;;22.40;;
21034;SDS011;10676;50.848;3.272;2023-04-24T03:36:50;34.15;;;21.23;;
21034;SDS011;10676;50.848;3.272;2023-04-24T03:39:16;36.67;;;21.85;;
21034;SDS011;10676;50.848;3.272;2023-04-24T03:41:41;33.53;;;21.33;;
21034;SDS011;10676;50.848;3.272;2023-04-24T03:44:07;36.40;;;20.63;;
21034;SDS011;10676;50.848;3.272;2023-04-24T03:46:32;34.20;;;22.33;;
21034;SDS011;10676;50.848;3.272;2023-04-24T03:48:58;34.13;;;19.40;;
21034;SDS011;10676;50.848;3.272;2023-04-24T03:51:24;28.90;;;19.27;;
21034;SDS011;10676;50.848;3.272;2023-04-24T03:53:50;31.98;;;18.48;;
21034;SDS011;10676;50.848;3.272;2023-04-24T03:56:15;33.10;;;19.65;;
21034;SDS011;10676;50.848;3.272;2023-04-24T03:58:41;30.60;;;19.60;;
21034;SDS011;10676;50.848;3.272;2023-04-24T04:01:07;33.20;;;18.35;;
21034;SDS011;10676;50.848;3.272;2023-04-24T04:03:33;34.53;;;17.05;;
21034;SDS011;10676;50.848;3.272;2023-04-24T04:05:59;28.77;;;18.25;;
21034;SDS011;10676;50.848;3.272;2023-04-24T04:08:25;28.15;;;17.83;;
21034;SDS011;10676;50.848;3.272;2023-04-24T04:10:51;30.80;;;19.42;;
21034;SDS011;10676;50.848;3.272;2023-04-24T04:13:16;39.78;;;19.88;;
21034;SDS011;10676;50.848;3.272;2023-04-24T04:15:42;34.47;;;18.80;;
21034;SDS011;10676;50.848;3.272;2023-04-24T04:18:08;26.02;;;16.70;;
21034;SDS011;10676;50.848;3.272;2023-04-24T04:20:33;30.17;;;18.05;;
21034;SDS011;10676;50.848;3.272;2023-04-24T04:22:59;32.80;;;16.42;;
21034;SDS011;10676;50.848;3.272;2023-04-24T04:25:25;31.02;;;18.92;;
21034;SDS011;10676;50.848;3.272;2023-04-24T04:27:51;30.60;;;17.70;;
21034;SDS011;10676;50.848;3.272;2023-04-24T04:30:17;38.15;;;18.85;;
21034;SDS011;10676;50.848;3.272;2023-04-24T04:32:43;30.92;;;18.73;;
21034;SDS011;10676;50.848;3.272;2023-04-24T04:35:09;25.30;;;16.95;;
21034;SDS011;10676;50.848;3.272;2023-04-24T04:37:35;28.30;;;16.52;;
21034;SDS011;10676;50.848;3.272;2023-04-24T04:40:01;32.50;;;17.92;;
21034;SDS011;10676;50.848;3.272;2023-04-24T04:42:36;30.85;;;18.13;;
21034;SDS011;10676;50.848;3.272;2023-04-24T04:45:05;29.98;;;18.10;;
21034;SDS011;10676;50.848;3.272;2023-04-24T04:47:33;34.35;;;17.25;;
21034;SDS011;10676;50.848;3.272;2023-04-24T04:50:00;29.33;;;17.92;;
21034;SDS011;10676;50.848;3.272;2023-04-24T04:52:25;32.97;;;18.90;;
21034;SDS011;10676;50.848;3.272;2023-04-24T04:54:52;29.40;;;17.33;;
21034;SDS011;10676;50.848;3.272;2023-04-24T04:57:17;32.03;;;18.13;;
21034;SDS011;10676;50.848;3.272;2023-04-24T04:59:43;32.40;;;18.55;;
21034;SDS011;10676;50.848;3.272;2023-04-24T05:02:09;32.75;;;17.83;;
21034;SDS011;10676;50.848;3.272;2023-04-24T05:04:35;27.15;;;16.77;;
21034;SDS011;10676;50.848;3.272;2023-04-24T05:07:01;33.58;;;18.08;;
21034;SDS011;10676;50.848;3.272;2023-04-24T05:09:26;34.13;;;18.33;;
21034;SDS011;10676;50.848;3.272;2023-04-24T05:11:54;27.42;;;16.33;;
21034;SDS011;10676;50.848;3.272;2023-04-24T05:14:20;31.83;;;17.65;;
21034;SDS011;10676;50.848;3.272;2023-04-24T05:16:46;30.52;;;17.15;;
21034;SDS011;10676;50.848;3.272;2023-04-24T05:19:12;30.60;;;17.25;;
21034;SDS011;10676;50.848;3.272;2023-04-24T05:21:39;29.75;;;18.08;;
21034;SDS011;10676;50.848;3.272;2023-04-24T05:24:05;31.30;;;18.90;;
21034;SDS011;10676;50.848;3.272;2023-04-24T05:26:31;34.78;;;18.92;;
21034;SDS011;10676;50.848;3.272;2023-04-24T05:28:57;32.90;;;18.50;;
21034;SDS011;10676;50.848;3.272;2023-04-24T05:31:22;34.83;;;18.40;;
21034;SDS011;10676;50.848;3.272;2023-04-24T05:33:48;33.47;;;18.42;;
21034;SDS011;10676;50.848;3.272;2023-04-24T05:36:14;27.27;;;18.08;;
21034;SDS011;10676;50.848;3.272;2023-04-24T05:38:40;28.40;;;16.90;;
21034;SDS011;10676;50.848;3.272;2023-04-24T05:41:05;33.75;;;19.45;;
21034;SDS011;10676;50.848;3.272;2023-04-24T05:43:31;29.60;;;18.35;;
21034;SDS011;10676;50.848;3.272;2023-04-24T05:45:57;32.63;;;18.45;;
21034;SDS011;10676;50.848;3.272;2023-04-24T05:48:22;31.65;;;17.77;;
21034;SDS011;10676;50.848;3.272;2023-04-24T05:50:48;37.25;;;18.15;;
21034;SDS011;10676;50.848;3.272;2023-04-24T05:53:14;33.03;;;18.67;;
21034;SDS011;10676;50.848;3.272;2023-04-24T05:55:40;31.25;;;19.13;;
21034;SDS011;10676;50.848;3.272;2023-04-24T05:58:06;37.22;;;17.42;;
21034;SDS011;10676;50.848;3.272;2023-04-24T06:00:32;30.27;;;18.10;;
21034;SDS011;10676;50.848;3.272;2023-04-24T06:02:59;30.33;;;18.33;;
21034;SDS011;10676;50.848;3.272;2023-04-24T06:05:25;33.83;;;19.10;;
21034;SDS011;10676;50.848;3.272;2023-04-24T06:07:51;32.10;;;19.23;;
21034;SDS011;10676;50.848;3.272;2023-04-24T06:10:16;31.30;;;18.50;;
21034;SDS011;10676;50.848;3.272;2023-04-24T06:12:42;36.25;;;19.20;;
21034;SDS011;10676;50.848;3.272;2023-04-24T06:15:08;35.03;;;19.90;;
21034;SDS011;10676;50.848;3.272;2023-04-24T06:17:34;35.42;;;20.45;;
21034;SDS011;10676;50.848;3.272;2023-04-24T06:20:00;32.97;;;19.33;;
21034;SDS011;10676;50.848;3.272;2023-04-24T06:22:25;34.45;;;18.92;;
21034;SDS011;10676;50.848;3.272;2023-04-24T06:24:51;35.47;;;20.48;;
21034;SDS011;10676;50.848;3.272;2023-04-24T06:27:17;36.63;;;18.83;;
21034;SDS011;10676;50.848;3.272;2023-04-24T06:29:42;34.65;;;19.45;;
21034;SDS011;10676;50.848;3.272;2023-04-24T06:32:08;33.22;;;18.92;;
21034;SDS011;10676;50.848;3.272;2023-04-24T06:34:34;28.95;;;18.63;;
21034;SDS011;10676;50.848;3.272;2023-04-24T06:37:00;35.58;;;18.15;;
21034;SDS011;10676;50.848;3.272;2023-04-24T06:39:26;33.13;;;18.05;;
21034;SDS011;10676;50.848;3.272;2023-04-24T06:41:52;31.45;;;17.23;;
21034;SDS011;10676;50.848;3.272;2023-04-24T06:44:17;26.35;;;15.30;;
21034;SDS011;10676;50.848;3.272;2023-04-24T06:46:43;25.00;;;16.35;;
21034;SDS011;10676;50.848;3.272;2023-04-24T06:49:09;24.90;;;15.20;;
21034;SDS011;10676;50.848;3.272;2023-04-24T06:51:34;24.95;;;16.05;;
21034;SDS011;10676;50.848;3.272;2023-04-24T06:54:00;26.05;;;14.43;;
21034;SDS011;10676;50.848;3.272;2023-04-24T06:56:26;33.40;;;16.70;;
21034;SDS011;10676;50.848;3.272;2023-04-24T06:58:54;23.08;;;15.02;;
21034;SDS011;10676;50.848;3.272;2023-04-24T07:01:19;27.20;;;15.60;;
21034;SDS011;10676;50.848;3.272;2023-04-24T07:03:45;23.98;;;15.80;;
21034;SDS011;10676;50.848;3.272;2023-04-24T07:06:11;24.63;;;14.80;;
21034;SDS011;10676;50.848;3.272;2023-04-24T07:08:37;28.25;;;14.85;;
21034;SDS011;10676;50.848;3.272;2023-04-24T07:11:03;21.90;;;13.30;;
21034;SDS011;10676;50.848;3.272;2023-04-24T07:13:29;21.23;;;12.55;;
21034;SDS011;10676;50.848;3.272;2023-04-24T07:15:55;17.98;;;11.65;;
21034;SDS011;10676;50.848;3.272;2023-04-24T07:18:21;23.67;;;13.07;;
21034;SDS011;10676;50.848;3.272;2023-04-24T07:20:47;22.88;;;12.65;;
21034;SDS011;10676;50.848;3.272;2023-04-24T07:23:15;17.40;;;11.45;;
21034;SDS011;10676;50.848;3.272;2023-04-24T07:25:41;20.52;;;12.13;;
21034;SDS011;10676;50.848;3.272;2023-04-24T07:28:06;19.42;;;12.65;;
21034;SDS011;10676;50.848;3.272;2023-04-24T07:30:32;20.15;;;12.70;;
21034;SDS011;10676;50.848;3.272;2023-04-24T07:32:58;19.67;;;12.38;;
21034;SDS011;10676;50.848;3.272;2023-04-24T07:35:25;18.50;;;12.80;;
21034;SDS011;10676;50.848;3.272;2023-04-24T07:37:52;19.08;;;12.10;;
21034;SDS011;10676;50.848;3.272;2023-04-24T07:40:18;17.48;;;12.75;;
21034;SDS011;10676;50.848;3.272;2023-04-24T07:42:44;20.40;;;13.60;;
21034;SDS011;10676;50.848;3.272;2023-04-24T07:45:10;18.20;;;11.23;;
21034;SDS011;10676;50.848;3.272;2023-04-24T07:47:35;19.92;;;11.27;;
21034;SDS011;10676;50.848;3.272;2023-04-24T07:50:03;16.73;;;11.18;;
21034;SDS011;10676;50.848;3.272;2023-04-24T07:52:29;15.25;;;10.63;;
21034;SDS011;10676;50.848;3.272;2023-04-24T07:54:55;21.77;;;11.27;;
21034;SDS011;10676;50.848;3.272;2023-04-24T07:57:25;12.57;;;10.60;;
21034;SDS011;10676;50.848;3.272;2023-04-24T07:59:51;14.32;;;10.10;;
21034;SDS011;10676;50.848;3.272;2023-04-24T08:02:16;16.27;;;9.23;;
21034;SDS011;10676;50.848;3.272;2023-04-24T08:04:42;17.08;;;11.60;;
21034;SDS011;10676;50.848;3.272;2023-04-24T08:07:08;19.50;;;15.90;;
21034;SDS011;10676;50.848;3.272;2023-04-24T08:09:33;16.27;;;14.57;;
21034;SDS011;10676;50.848;3.272;2023-04-24T08:11:59;21.58;;;17.55;;
21034;SDS011;10676;50.848;3.272;2023-04-24T08:14:26;20.10;;;15.70;;
21034;SDS011;10676;50.848;3.272;2023-04-24T08:16:53;16.15;;;14.73;;
21034;SDS011;10676;50.848;3.272;2023-04-24T08:19:21;17.20;;;15.55;;
21034;SDS011;10676;50.848;3.272;2023-04-24T08:21:46;19.27;;;17.20;;
21034;SDS011;10676;50.848;3.272;2023-04-24T08:24:12;17.77;;;15.88;;
21034;SDS011;10676;50.848;3.272;2023-04-24T08:26:37;19.80;;;17.80;;
21034;SDS011;10676;50.848;3.272;2023-04-24T08:29:04;25.65;;;20.63;;
21034;SDS011;10676;50.848;3.272;2023-04-24T08:31:31;20.90;;;18.70;;
21034;SDS011;10676;50.848;3.272;2023-04-24T08:33:56;20.13;;;18.13;;
21034;SDS011;10676;50.848;3.272;2023-04-24T08:36:22;23.20;;;19.25;;
21034;SDS011;10676;50.848;3.272;2023-04-24T08:38:48;22.80;;;18.60;;
21034;SDS011;10676;50.848;3.272;2023-04-24T08:41:14;21.00;;;18.80;;
21034;SDS011;10676;50.848;3.272;2023-04-24T08:43:41;21.23;;;19.17;;
21034;SDS011;10676;50.848;3.272;2023-04-24T08:46:07;22.63;;;20.23;;
21034;SDS011;10676;50.848;3.272;2023-04-24T08:48:34;23.58;;;18.45;;
21034;SDS011;10676;50.848;3.272;2023-04-24T08:51:00;19.58;;;17.73;;
21034;SDS011;10676;50.848;3.272;2023-04-24T08:53:27;20.02;;;18.30;;
21034;SDS011;10676;50.848;3.272;2023-04-24T08:55:54;24.80;;;22.05;;
21034;SDS011;10676;50.848;3.272;2023-04-24T08:58:21;21.10;;;18.88;;
21034;SDS011;10676;50.848;3.272;2023-04-24T09:00:48;31.70;;;26.42;;
21034;SDS011;10676;50.848;3.272;2023-04-24T09:03:15;26.27;;;23.58;;
21034;SDS011;10676;50.848;3.272;2023-04-24T09:05:42;28.52;;;23.67;;
21034;SDS011;10676;50.848;3.272;2023-04-24T09:08:10;27.33;;;24.48;;
21034;SDS011;10676;50.848;3.272;2023-04-24T09:10:46;28.10;;;24.48;;
21034;SDS011;10676;50.848;3.272;2023-04-24T09:13:12;25.13;;;21.95;;
21034;SDS011;10676;50.848;3.272;2023-04-24T09:15:39;24.27;;;20.70;;
21034;SDS011;10676;50.848;3.272;2023-04-24T09:18:05;22.42;;;20.13;;
21034;SDS011;10676;50.848;3.272;2023-04-24T09:20:31;22.80;;;20.55;;
21034;SDS011;10676;50.848;3.272;2023-04-24T09:22:58;25.92;;;20.42;;
21034;SDS011;10676;50.848;3.272;2023-04-24T09:25:33;28.48;;;25.88;;
21034;SDS011;10676;50.848;3.272;2023-04-24T09:28:03;26.13;;;23.50;;
21034;SDS011;10676;50.848;3.272;2023-04-24T09:30:31;29.02;;;23.10;;
21034;SDS011;10676;50.848;3.272;2023-04-24T09:33:13;34.38;;;27.33;;
21034;SDS011;10676;50.848;3.272;2023-04-24T09:35:40;28.92;;;24.40;;
21034;SDS011;10676;50.848;3.272;2023-04-24T09:38:15;28.65;;;25.60;;
21034;SDS011;10676;50.848;3.272;2023-04-24T09:40:41;28.80;;;25.67;;
21034;SDS011;10676;50.848;3.272;2023-04-24T09:43:10;29.48;;;23.23;;
21034;SDS011;10676;50.848;3.272;2023-04-24T09:45:36;31.27;;;25.15;;
21034;SDS011;10676;50.848;3.272;2023-04-24T09:48:04;29.10;;;26.23;;
21034;SDS011;10676;50.848;3.272;2023-04-24T09:50:31;28.98;;;25.95;;
21034;SDS011;10676;50.848;3.272;2023-04-24T09:53:00;29.65;;;24.40;;
21034;SDS011;10676;50.848;3.272;2023-04-24T09:55:28;29.17;;;25.77;;
21034;SDS011;10676;50.848;3.272;2023-04-24T09:58:00;27.60;;;24.02;;
21034;SDS011;10676;50.848;3.272;2023-04-24T10:00:27;29.38;;;25.30;;
21034;SDS011;10676;50.848;3.272;2023-04-24T10:02:55;26.35;;;23.75;;
21034;SDS011;10676;50.848;3.272;2023-04-24T10:05:28;26.52;;;24.00;;
21034;SDS011;10676;50.848;3.272;2023-04-24T10:08:00;26.98;;;24.33;;
21034;SDS011;10676;50.848;3.272;2023-04-24T10:10:30;26.25;;;23.73;;
21034;SDS011;10676;50.848;3.272;2023-04-24T10:12:57;28.00;;;25.25;;
21034;SDS011;10676;50.848;3.272;2023-04-24T10:15:24;27.70;;;24.38;;
21034;SDS011;10676;50.848;3.272;2023-04-24T10:17:51;1999.90;;;999.90;;
21034;SDS011;10676;50.848;3.272;2023-04-24T10:20:20;1999.90;;;999.90;;
21034;SDS011;10676;50.848;3.272;2023-04-24T10:22:51;1506.28;;;755.53;;
21034;SDS011;10676;50.848;3.272;2023-04-24T10:25:21;1999.90;;;999.90;;
21034;SDS011;10676;50.848;3.272;2023-04-24T10:27:51;1999.90;;;999.90;;
21034;SDS011;10676;50.848;3.272;2023-04-24T10:30:18;517.13;;;265.70;;
21034;SDS011;10676;50.848;3.272;2023-04-24T10:32:44;1999.90;;;999.90;;
21034;SDS011;10676;50.848;3.272;2023-04-24T10:35:14;22.30;;;20.02;;
21034;SDS011;10676;50.848;3.272;2023-04-24T10:37:46;517.38;;;265.80;;
21034;SDS011;10676;50.848;3.272;2023-04-24T10:40:19;1999.90;;;999.90;;
21034;SDS011;10676;50.848;3.272;2023-04-24T10:42:51;1999.90;;;999.90;;
21034;SDS011;10676;50.848;3.272;2023-04-24T10:45:19;22.40;;;20.45;;
21034;SDS011;10676;50.848;3.272;2023-04-24T10:47:54;20.95;;;19.02;;
21034;SDS011;10676;50.848;3.272;2023-04-24T10:50:29;21.75;;;19.67;;
21034;SDS011;10676;50.848;3.272;2023-04-24T10:53:07;21.10;;;19.05;;
21034;SDS011;10676;50.848;3.272;2023-04-24T10:55:44;20.40;;;18.48;;
21034;SDS011;10676;50.848;3.272;2023-04-24T10:58:24;18.52;;;16.77;;
21034;SDS011;10676;50.848;3.272;2023-04-24T11:01:00;18.13;;;16.63;;
21034;SDS011;10676;50.848;3.272;2023-04-24T11:05:55;19.08;;;17.33;;
21034;SDS011;10676;50.848;3.272;2023-04-24T11:08:29;19.40;;;17.67;;
21034;SDS011;10676;50.848;3.272;2023-04-24T11:11:11;18.13;;;16.42;;
21034;SDS011;10676;50.848;3.272;2023-04-24T11:18:52;19.10;;;17.52;;
21034;SDS011;10676;50.848;3.272;2023-04-24T11:21:25;21.25;;;19.42;;
21034;SDS011;10676;50.848;3.272;2023-04-24T11:23:56;20.38;;;18.58;;
21034;SDS011;10676;50.848;3.272;2023-04-24T11:26:22;23.08;;;21.05;;
21034;SDS011;10676;50.848;3.272;2023-04-24T11:28:55;22.85;;;20.75;;
21034;SDS011;10676;50.848;3.272;2023-04-24T11:31:39;22.08;;;20.17;;
21034;SDS011;10676;50.848;3.272;2023-04-24T11:34:13;21.33;;;19.63;;
21034;SDS011;10676;50.848;3.272;2023-04-24T11:36:43;24.45;;;22.08;;
21034;SDS011;10676;50.848;3.272;2023-04-24T11:39:10;20.15;;;18.52;;
21034;SDS011;10676;50.848;3.272;2023-04-24T11:41:36;22.02;;;20.40;;
21034;SDS011;10676;50.848;3.272;2023-04-24T11:44:03;21.38;;;19.67;;
21034;SDS011;10676;50.848;3.272;2023-04-24T11:46:31;18.80;;;17.10;;
21034;SDS011;10676;50.848;3.272;2023-04-24T11:48:58;19.67;;;17.83;;
21034;SDS011;10676;50.848;3.272;2023-04-24T11:51:25;18.40;;;16.80;;
21034;SDS011;10676;50.848;3.272;2023-04-24T11:53:55;17.85;;;16.33;;
21034;SDS011;10676;50.848;3.272;2023-04-24T11:56:22;19.33;;;17.70;;
21034;SDS011;10676;50.848;3.272;2023-04-24T11:58:48;20.05;;;18.55;;
21034;SDS011;10676;50.848;3.272;2023-04-24T12:01:16;19.00;;;16.45;;
21034;SDS011;10676;50.848;3.272;2023-04-24T12:03:46;17.67;;;15.98;;
21034;SDS011;10676;50.848;3.272;2023-04-24T12:06:13;16.20;;;14.90;;
21034;SDS011;10676;50.848;3.272;2023-04-24T12:08:39;16.27;;;15.07;;
21034;SDS011;10676;50.848;3.272;2023-04-24T12:11:05;20.85;;;19.17;;
21034;SDS011;10676;50.848;3.272;2023-04-24T12:13:34;18.40;;;17.10;;
21034;SDS011;10676;50.848;3.272;2023-04-24T12:16:04;18.25;;;16.55;;
21034;SDS011;10676;50.848;3.272;2023-04-24T12:18:30;18.92;;;17.48;;
21034;SDS011;10676;50.848;3.272;2023-04-24T12:21:14;16.30;;;15.10;;
21034;SDS011;10676;50.848;3.272;2023-04-24T12:23:47;13.98;;;12.98;;
21034;SDS011;10676;50.848;3.272;2023-04-24T12:26:17;15.40;;;14.10;;
21034;SDS011;10676;50.848;3.272;2023-04-24T12:28:45;17.13;;;15.85;;
21034;SDS011;10676;50.848;3.272;2023-04-24T12:31:14;15.93;;;14.82;;
21034;SDS011;10676;50.848;3.272;2023-04-24T12:33:40;17.20;;;16.00;;
21034;SDS011;10676;50.848;3.272;2023-04-24T12:36:06;16.30;;;14.77;;
21034;SDS011;10676;50.848;3.272;2023-04-24T12:38:35;14.48;;;13.48;;
21034;SDS011;10676;50.848;3.272;2023-04-24T12:41:06;15.82;;;14.63;;
21034;SDS011;10676;50.848;3.272;2023-04-24T12:43:33;20.02;;;18.50;;
21034;SDS011;10676;50.848;3.272;2023-04-24T12:45:59;1999.90;;;999.90;;
21034;SDS011;10676;50.848;3.272;2023-04-24T12:48:26;1999.90;;;999.90;;
21034;SDS011;10676;50.848;3.272;2023-04-24T12:50:52;1999.90;;;999.90;;
21034;SDS011;10676;50.848;3.272;2023-04-24T12:53:18;17.42;;;16.13;;
21034;SDS011;10676;50.848;3.272;2023-04-24T12:55:44;17.42;;;16.10;;
21034;SDS011;10676;50.848;3.272;2023-04-24T12:58:10;1504.38;;;754.13;;
21034;SDS011;10676;50.848;3.272;2023-04-24T13:00:36;1999.90;;;999.90;;
21034;SDS011;10676;50.848;3.272;2023-04-24T13:03:02;1999.90;;;999.90;;
21034;SDS011;10676;50.848;3.272;2023-04-24T13:05:28;1999.90;;;999.90;;
21034;SDS011;10676;50.848;3.272;2023-04-24T13:07:53;1999.90;;;999.90;;
21034;SDS011;10676;50.848;3.272;2023-04-24T13:10:21;1999.90;;;999.90;;
21034;SDS011;10676;50.848;3.272;2023-04-24T13:12:47;1999.90;;;999.90;;
21034;SDS011;10676;50.848;3.272;2023-04-24T13:15:13;1999.90;;;999.90;;
21034;SDS011;10676;50.848;3.272;2023-04-24T13:17:39;1999.90;;;999.90;;
21034;SDS011;10676;50.848;3.272;2023-04-24T13:20:05;1999.90;;;999.90;;
21034;SDS011;10676;50.848;3.272;2023-04-24T13:22:31;1505.53;;;755.13;;
21034;SDS011;10676;50.848;3.272;2023-04-24T13:24:56;20.35;;;18.65;;
21034;SDS011;10676;50.848;3.272;2023-04-24T13:27:22;19.33;;;18.00;;
21034;SDS011;10676;50.848;3.272;2023-04-24T13:29:48;1999.90;;;999.90;;
21034;SDS011;10676;50.848;3.272;2023-04-24T13:32:14;1999.90;;;999.90;;
21034;SDS011;10676;50.848;3.272;2023-04-24T13:34:39;1999.90;;;999.90;;
21034;SDS011;10676;50.848;3.272;2023-04-24T13:37:05;1999.90;;;999.90;;
21034;SDS011;10676;50.848;3.272;2023-04-24T13:39:32;1999.90;;;999.90;;
21034;SDS011;10676;50.848;3.272;2023-04-24T13:41:58;1999.90;;;999.90;;
21034;SDS011;10676;50.848;3.272;2023-04-24T13:44:24;1999.90;;;999.90;;
21034;SDS011;10676;50.848;3.272;2023-04-24T13:46:51;1999.90;;;999.90;;
21034;SDS011;10676;50.848;3.272;2023-04-24T13:49:19;1999.90;;;999.90;;
21034;SDS011;10676;50.848;3.272;2023-04-24T13:51:46;1999.90;;;999.90;;
21034;SDS011;10676;50.848;3.272;2023-04-24T13:54:12;1999.90;;;999.90;;
21034;SDS011;10676;50.848;3.272;2023-04-24T13:56:38;1999.90;;;999.90;;
21034;SDS011;10676;50.848;3.272;2023-04-24T13:59:05;1999.90;;;999.90;;
21034;SDS011;10676;50.848;3.272;2023-04-24T14:01:31;1999.90;;;999.90;;
21034;SDS011;10676;50.848;3.272;2023-04-24T14:03:57;15.43;;;14.23;;
21034;SDS011;10676;50.848;3.272;2023-04-24T14:06:23;1007.75;;;507.25;;
21034;SDS011;10676;50.848;3.272;2023-04-24T14:08:49;1999.90;;;999.90;;
21034;SDS011;10676;50.848;3.272;2023-04-24T14:11:15;1999.90;;;999.90;;
21034;SDS011;10676;50.848;3.272;2023-04-24T14:13:42;1999.90;;;999.90;;
21034;SDS011;10676;50.848;3.272;2023-04-24T14:16:08;1999.90;;;999.90;;
21034;SDS011;10676;50.848;3.272;2023-04-24T14:18:34;1999.90;;;999.90;;
21034;SDS011;10676;50.848;3.272;2023-04-24T14:21:01;1999.90;;;999.90;;
21034;SDS011;10676;50.848;3.272;2023-04-24T14:23:27;1999.90;;;999.90;;